createdAt,value
2018-07-30T00:00:53.872Z,11.67
2018-07-30T00:03:22.138Z,11.80
2018-07-30T00:05:49.633Z,12.13
2018-07-30T00:08:17.172Z,11.13
2018-07-30T00:10:44.699Z,10.17
2018-07-30T00:13:12.636Z,13.40
2018-07-30T00:15:40.145Z,11.20
2018-07-30T00:18:08.086Z,10.47
2018-07-30T00:20:36.834Z,10.90
2018-07-30T00:23:04.803Z,12.70
2018-07-30T00:25:32.302Z,12.20
2018-07-30T00:28:00.448Z,13.57
2018-07-30T00:30:27.967Z,10.97
2018-07-30T00:32:56.289Z,9.07
2018-07-30T00:35:24.163Z,8.83
2018-07-30T00:37:51.682Z,9.53
2018-07-30T00:40:19.255Z,10.80
2018-07-30T00:42:48.592Z,14.97
2018-07-30T00:45:17.368Z,11.87
2018-07-30T00:47:44.888Z,12.23
2018-07-30T00:50:12.391Z,8.70
2018-07-30T00:52:40.280Z,9.70
2018-07-30T00:55:07.800Z,17.90
2018-07-30T00:57:35.750Z,14.17
2018-07-30T01:00:05.418Z,12.70
2018-07-30T01:02:33.875Z,11.30
2018-07-30T01:05:01.397Z,11.77
2018-07-30T01:07:28.974Z,15.00
2018-07-30T01:09:56.507Z,17.10
2018-07-30T01:12:24.027Z,12.50
2018-07-30T01:14:51.859Z,11.83
2018-07-30T01:17:19.815Z,12.00
2018-07-30T01:19:48.644Z,9.90
2018-07-30T01:22:16.522Z,11.87
2018-07-30T01:24:44.483Z,10.70
2018-07-30T01:27:11.991Z,11.93
2018-07-30T01:29:39.544Z,12.07
2018-07-30T01:32:07.605Z,14.67
2018-07-30T01:34:35.738Z,17.70
2018-07-30T01:37:04.131Z,12.47
2018-07-30T01:39:31.695Z,12.53
2018-07-30T01:41:59.242Z,11.30
2018-07-30T01:44:27.312Z,11.70
2018-07-30T01:46:54.772Z,10.27
2018-07-30T01:49:22.663Z,11.63
2018-07-30T01:51:50.207Z,9.30
2018-07-30T01:54:17.689Z,13.47
2018-07-30T01:56:45.209Z,11.23
2018-07-30T01:59:14.243Z,8.87
2018-07-30T02:01:42.088Z,10.10
2018-07-30T02:04:09.587Z,10.70
2018-07-30T02:06:37.142Z,10.73
2018-07-30T02:09:08.243Z,12.47
2018-07-30T02:11:36.323Z,13.80
2018-07-30T02:14:05.167Z,11.43
2018-07-30T02:16:33.179Z,11.83
2018-07-30T02:19:01.101Z,11.50
2018-07-30T02:21:29.651Z,12.50
2018-07-30T02:23:57.536Z,9.50
2018-07-30T02:26:25.175Z,14.30
2018-07-30T02:28:52.712Z,11.77
2018-07-30T02:31:20.235Z,14.10
2018-07-30T02:33:48.385Z,13.90
2018-07-30T02:36:16.858Z,15.23
2018-07-30T02:38:44.395Z,16.30
2018-07-30T02:41:11.923Z,13.73
2018-07-30T02:43:39.848Z,14.03
2018-07-30T02:46:08.092Z,13.67
2018-07-30T02:48:35.601Z,14.37
2018-07-30T02:51:03.185Z,12.40
2018-07-30T02:53:31.403Z,12.00
2018-07-30T02:55:59.280Z,18.60
2018-07-30T02:58:26.792Z,17.50
2018-07-30T03:00:55.083Z,15.30
2018-07-30T03:03:22.601Z,15.07
2018-07-30T03:05:50.104Z,15.10
2018-07-30T03:08:17.648Z,17.33
2018-07-30T03:10:45.176Z,11.83
2018-07-30T03:13:13.762Z,14.27
2018-07-30T03:15:41.642Z,14.63
2018-07-30T03:18:09.203Z,14.83
2018-07-30T03:20:36.741Z,11.67
2018-07-30T03:23:04.776Z,11.27
2018-07-30T03:25:32.296Z,15.40
2018-07-30T03:27:59.800Z,10.27
2018-07-30T03:30:27.836Z,11.10
2018-07-30T03:32:55.760Z,13.00
2018-07-30T03:35:23.290Z,15.13
2018-07-30T03:37:50.803Z,15.23
2018-07-30T03:40:18.369Z,13.43
2018-07-30T03:42:45.935Z,12.10
2018-07-30T03:45:13.950Z,10.70
2018-07-30T03:47:41.521Z,13.40
2018-07-30T03:50:09.236Z,12.43
2018-07-30T03:52:36.794Z,12.90
2018-07-30T03:55:05.015Z,12.20
2018-07-30T03:57:32.546Z,12.37
2018-07-30T04:00:00.134Z,9.80
2018-07-30T04:02:28.343Z,14.57
2018-07-30T04:04:55.910Z,15.87
2018-07-30T04:07:23.980Z,13.60
2018-07-30T04:09:51.940Z,11.53
2018-07-30T04:12:19.888Z,11.40
2018-07-30T04:14:47.884Z,14.97
2018-07-30T04:17:15.388Z,10.30
2018-07-30T04:19:43.736Z,11.27
2018-07-30T04:22:11.755Z,10.90
2018-07-30T04:24:39.600Z,11.30
2018-07-30T04:27:07.188Z,18.20
2018-07-30T04:29:34.705Z,16.97
2018-07-30T04:32:02.256Z,16.23
2018-07-30T04:34:30.140Z,13.33
2018-07-30T04:36:57.667Z,14.37
2018-07-30T04:39:25.210Z,10.83
2018-07-30T04:41:53.347Z,11.63
2018-07-30T04:44:21.475Z,13.77
2018-07-30T04:46:48.967Z,15.80
2018-07-30T04:49:16.479Z,16.87
2018-07-30T04:51:44.720Z,17.03
2018-07-30T04:54:12.156Z,15.83
2018-07-30T04:56:39.672Z,15.00
2018-07-30T04:59:07.230Z,11.70
2018-07-30T05:01:36.111Z,15.87
2018-07-30T05:04:03.967Z,18.33
2018-07-30T05:06:31.472Z,13.83
2018-07-30T05:08:59.519Z,11.80
2018-07-30T05:11:26.980Z,11.80
2018-07-30T05:13:54.871Z,11.10
2018-07-30T05:16:22.743Z,17.87
2018-07-30T05:18:50.695Z,16.50
2018-07-30T05:21:18.719Z,12.27
2018-07-30T05:23:46.750Z,13.87
2018-07-30T05:26:14.444Z,14.57
2018-07-30T05:28:41.956Z,13.80
2018-07-30T05:31:10.209Z,12.23
2018-07-30T05:33:38.115Z,11.37
2018-07-30T05:36:05.747Z,9.50
2018-07-30T05:38:33.600Z,10.37
2018-07-30T05:41:01.655Z,10.03
2018-07-30T05:43:30.347Z,9.93
2018-07-30T05:45:57.801Z,10.73
2018-07-30T05:48:26.289Z,12.43
2018-07-30T05:50:54.297Z,11.20
2018-07-30T05:53:22.535Z,13.03
2018-07-30T05:55:50.057Z,12.70
2018-07-30T05:58:17.566Z,13.07
2018-07-30T06:00:45.640Z,15.03
2018-07-30T06:03:13.153Z,12.00
2018-07-30T06:05:41.214Z,13.37
2018-07-30T06:08:08.728Z,12.33
2018-07-30T06:10:36.267Z,13.77
2018-07-30T06:13:04.626Z,12.20
2018-07-30T06:15:32.688Z,13.00
2018-07-30T06:18:00.231Z,11.80
2018-07-30T06:20:28.506Z,12.97
2018-07-30T06:22:57.411Z,12.13
2018-07-30T06:25:24.928Z,11.53
2018-07-30T06:27:52.471Z,12.47
2018-07-30T06:30:20.010Z,11.80
2018-07-30T06:32:48.271Z,10.70
2018-07-30T06:35:16.467Z,12.50
2018-07-30T06:37:44.580Z,12.50
2018-07-30T06:40:13.119Z,14.20
2018-07-30T06:42:40.935Z,13.33
2018-07-30T06:45:09.778Z,12.33
2018-07-30T06:47:38.506Z,13.00
2018-07-30T06:50:06.553Z,12.83
2018-07-30T06:52:34.120Z,12.17
2018-07-30T06:55:01.651Z,11.70
2018-07-30T06:57:29.281Z,12.50
2018-07-30T06:59:56.868Z,12.90
2018-07-30T07:02:24.955Z,13.23
2018-07-30T07:04:53.184Z,13.23
2018-07-30T07:07:20.772Z,11.17
2018-07-30T07:09:48.329Z,11.20
2018-07-30T07:12:16.466Z,11.30
2018-07-30T07:14:44.591Z,12.77
2018-07-30T07:17:12.759Z,12.27
2018-07-30T07:19:40.283Z,12.10
2018-07-30T07:22:08.293Z,10.77
2018-07-30T07:24:36.394Z,9.53
2018-07-30T07:27:04.016Z,11.70
2018-07-30T07:29:31.489Z,12.47
2018-07-30T07:31:59.032Z,11.10
2018-07-30T07:34:27.106Z,11.20
2018-07-30T07:36:54.626Z,11.10
2018-07-30T07:39:22.143Z,13.53
2018-07-30T07:41:50.214Z,10.90
2018-07-30T07:44:18.230Z,10.77
2018-07-30T07:46:45.758Z,10.70
2018-07-30T07:49:14.159Z,11.40
2018-07-30T07:51:41.757Z,10.20
2018-07-30T07:54:09.351Z,11.30
2018-07-30T07:56:36.936Z,11.40
2018-07-30T07:59:04.751Z,12.10
2018-07-30T08:01:32.668Z,11.20
2018-07-30T08:04:00.782Z,12.73
2018-07-30T08:06:28.273Z,10.60
2018-07-30T08:08:56.260Z,8.97
2018-07-30T08:11:23.828Z,20.43
2018-07-30T08:13:52.953Z,9.57
2018-07-30T08:16:21.111Z,10.80
2018-07-30T08:18:48.644Z,11.90
2018-07-30T08:21:16.601Z,10.83
2018-07-30T08:23:44.806Z,13.30
2018-07-30T08:26:12.320Z,10.10
2018-07-30T08:28:39.840Z,10.43
2018-07-30T08:31:07.385Z,10.43
2018-07-30T08:33:35.476Z,9.47
2018-07-30T08:36:03.988Z,12.33
2018-07-30T08:38:31.587Z,9.30
2018-07-30T08:40:59.467Z,9.70
2018-07-30T08:43:27.660Z,8.80
2018-07-30T08:45:55.179Z,10.73
2018-07-30T08:48:23.116Z,10.50
2018-07-30T08:50:50.614Z,12.10
2018-07-30T08:53:18.075Z,9.60
2018-07-30T08:55:45.580Z,10.97
2018-07-30T08:58:13.464Z,10.60
2018-07-30T09:00:41.888Z,11.00
2018-07-30T09:03:09.500Z,12.80
2018-07-30T09:05:37.995Z,10.57
2018-07-30T09:08:06.264Z,9.20
2018-07-30T09:10:33.768Z,10.47
2018-07-30T09:13:01.990Z,9.63
2018-07-30T09:15:29.483Z,9.67
2018-07-30T09:17:57.036Z,9.93
2018-07-30T09:20:25.140Z,10.17
2018-07-30T09:22:53.657Z,14.00
2018-07-30T09:25:21.395Z,10.00
2018-07-30T09:27:48.946Z,7.60
2018-07-30T09:30:17.097Z,8.23
2018-07-30T09:32:45.241Z,7.83
2018-07-30T09:35:13.224Z,9.20
2018-07-30T09:37:41.027Z,8.70
2018-07-30T09:40:09.070Z,8.63
2018-07-30T09:42:36.595Z,7.70
2018-07-30T09:45:04.596Z,8.73
2018-07-30T09:47:32.575Z,9.17
2018-07-30T09:50:00.392Z,7.60
2018-07-30T09:52:28.727Z,7.53
2018-07-30T09:54:56.931Z,8.37
2018-07-30T09:57:24.467Z,8.20
2018-07-30T09:59:51.907Z,7.53
2018-07-30T10:02:19.856Z,7.57
2018-07-30T10:04:47.352Z,8.40
2018-07-30T10:07:15.682Z,7.90
2018-07-30T10:09:43.573Z,8.20
2018-07-30T10:12:11.448Z,8.03
2018-07-30T10:14:39.688Z,9.63
2018-07-30T10:17:07.742Z,13.83
2018-07-30T10:19:35.200Z,8.00
2018-07-30T10:22:03.281Z,7.87
2018-07-30T10:24:31.466Z,6.87
2018-07-30T10:26:59.326Z,7.10
2018-07-30T10:29:27.240Z,6.37
2018-07-30T10:31:55.397Z,7.03
2018-07-30T10:34:23.375Z,6.50
2018-07-30T10:36:51.232Z,6.07
2018-07-30T10:39:18.868Z,6.60
2018-07-30T10:41:46.424Z,6.27
2018-07-30T10:44:14.648Z,6.47
2018-07-30T10:46:42.168Z,10.57
2018-07-30T10:49:10.111Z,6.67
2018-07-30T10:51:37.636Z,5.73
2018-07-30T10:54:05.620Z,5.53
2018-07-30T10:56:33.169Z,5.87
2018-07-30T10:59:00.702Z,6.17
2018-07-30T11:01:28.209Z,6.53
2018-07-30T11:03:56.658Z,6.90
2018-07-30T11:06:24.720Z,5.70
2018-07-30T11:08:52.233Z,5.90
2018-07-30T11:11:20.396Z,6.43
2018-07-30T11:13:48.412Z,5.50
2018-07-30T11:16:15.929Z,5.80
2018-07-30T11:18:43.972Z,5.50
2018-07-30T11:21:12.233Z,5.93
2018-07-30T11:23:40.411Z,7.70
2018-07-30T11:26:08.292Z,5.33
2018-07-30T11:28:35.883Z,5.77
2018-07-30T11:31:03.409Z,6.23
2018-07-30T11:33:31.582Z,6.13
2018-07-30T11:35:59.476Z,6.73
2018-07-30T11:38:26.968Z,6.13
2018-07-30T11:40:55.008Z,6.53
2018-07-30T11:43:22.510Z,6.40
2018-07-30T11:45:50.497Z,6.37
2018-07-30T11:48:17.945Z,7.17
2018-07-30T11:50:46.344Z,7.80
2018-07-30T11:53:13.859Z,14.07
2018-07-30T11:55:41.384Z,6.97
2018-07-30T11:58:09.540Z,5.97
2018-07-30T12:00:37.043Z,5.70
2018-07-30T12:03:04.598Z,6.30
2018-07-30T12:05:32.691Z,8.07
2018-07-30T12:08:00.201Z,5.70
2018-07-30T12:10:27.730Z,6.13
2018-07-30T12:12:55.576Z,6.10
2018-07-30T12:15:23.080Z,5.87
2018-07-30T12:17:51.243Z,6.50
2018-07-30T12:20:18.755Z,5.73
2018-07-30T12:22:46.883Z,5.30
2018-07-30T12:25:14.534Z,5.67
2018-07-30T12:27:42.049Z,5.83
2018-07-30T12:30:09.646Z,5.40
2018-07-30T12:32:37.510Z,5.10
2018-07-30T12:35:05.400Z,6.03
2018-07-30T12:37:34.079Z,6.13
2018-07-30T12:40:01.596Z,6.00
2018-07-30T12:42:29.642Z,6.00
2018-07-30T12:44:57.660Z,6.00
2018-07-30T12:47:25.146Z,5.57
2018-07-30T12:49:53.069Z,5.47
2018-07-30T12:52:21.391Z,5.80
2018-07-30T12:54:48.841Z,6.07
2018-07-30T12:57:16.384Z,6.00
2018-07-30T12:59:43.880Z,5.33
2018-07-30T13:02:11.841Z,8.30
2018-07-30T13:04:40.188Z,5.97
2018-07-30T13:07:07.684Z,6.00
2018-07-30T13:09:35.176Z,6.00
2018-07-30T13:12:02.754Z,5.47
2018-07-30T13:14:30.919Z,5.40
2018-07-30T13:16:58.432Z,5.40
2018-07-30T13:19:26.539Z,5.20
2018-07-30T13:21:54.520Z,5.63
2018-07-30T13:24:22.400Z,4.73
2018-07-30T13:26:49.981Z,5.60
2018-07-30T13:29:18.064Z,4.90
2018-07-30T13:31:45.563Z,5.03
2018-07-30T13:34:13.459Z,6.00
2018-07-30T13:36:41.012Z,5.23
2018-07-30T13:39:09.550Z,4.50
2018-07-30T13:41:38.027Z,5.20
2018-07-30T13:44:06.572Z,4.77
2018-07-30T13:46:34.516Z,5.80
2018-07-30T13:49:02.028Z,5.53
2018-07-30T13:51:30.211Z,6.03
2018-07-30T13:53:57.713Z,5.97
2018-07-30T13:56:25.214Z,5.40
2018-07-30T13:58:53.400Z,6.33
2018-07-30T14:01:20.894Z,5.10
2018-07-30T14:03:49.283Z,5.20
2018-07-30T14:06:16.847Z,5.60
2018-07-30T14:08:44.386Z,4.70
2018-07-30T14:11:12.571Z,5.30
2018-07-30T14:13:40.576Z,5.23
2018-07-30T14:16:08.060Z,5.60
2018-07-30T14:18:36.052Z,5.40
2018-07-30T14:21:03.992Z,5.03
2018-07-30T14:23:31.923Z,5.03
2018-07-30T14:25:59.446Z,4.83
2018-07-30T14:28:27.522Z,4.67
2018-07-30T14:30:55.000Z,5.70
2018-07-30T14:33:23.122Z,4.83
2018-07-30T14:35:50.640Z,6.40
2018-07-30T14:38:19.091Z,5.23
2018-07-30T14:40:46.615Z,9.10
2018-07-30T14:43:14.685Z,4.10
2018-07-30T14:45:42.583Z,4.27
2018-07-30T14:48:10.732Z,4.97
2018-07-30T14:50:38.260Z,4.83
2018-07-30T14:53:06.387Z,13.63
2018-07-30T14:55:33.900Z,4.93
2018-07-30T14:58:01.444Z,4.77
2018-07-30T15:00:28.996Z,4.50
2018-07-30T15:02:56.531Z,5.73
2018-07-30T15:05:24.254Z,4.83
2018-07-30T15:07:52.112Z,4.90
2018-07-30T15:10:19.624Z,4.60
2018-07-30T15:12:47.804Z,4.00
2018-07-30T15:15:15.739Z,4.00
2018-07-30T15:17:43.664Z,4.20
2018-07-30T15:20:11.221Z,3.93
2018-07-30T15:22:39.184Z,3.50
2018-07-30T15:25:07.160Z,5.60
2018-07-30T15:27:34.704Z,7.30
2018-07-30T15:30:02.273Z,3.97
2018-07-30T15:32:29.808Z,3.90
2018-07-30T15:34:58.096Z,4.20
2018-07-30T15:37:25.737Z,3.63
2018-07-30T15:39:53.768Z,3.60
2018-07-30T15:42:21.916Z,4.37
2018-07-30T15:44:49.768Z,4.00
2018-07-30T15:47:17.267Z,3.60
2018-07-30T15:49:44.794Z,3.30
2018-07-30T15:52:12.315Z,4.10
2018-07-30T15:54:39.887Z,3.43
2018-07-30T15:57:08.115Z,3.53
2018-07-30T15:59:35.672Z,3.80
2018-07-30T16:02:03.236Z,4.00
2018-07-30T16:04:30.752Z,3.27
2018-07-30T16:06:58.368Z,3.67
2018-07-30T16:09:26.048Z,3.30
2018-07-30T16:11:54.113Z,4.70
2018-07-30T16:14:22.026Z,3.30
2018-07-30T16:16:50.245Z,3.60
2018-07-30T16:19:17.784Z,3.10
2018-07-30T16:21:46.062Z,3.30
2018-07-30T16:24:13.947Z,3.43
2018-07-30T16:26:41.462Z,4.77
2018-07-30T16:29:09.491Z,3.30
2018-07-30T16:31:37.408Z,3.40
2018-07-30T16:34:05.419Z,5.20
2018-07-30T16:36:33.464Z,3.03
2018-07-30T16:39:01.460Z,3.20
2018-07-30T16:41:29.365Z,2.73
2018-07-30T16:43:57.261Z,3.40
2018-07-30T16:46:25.276Z,3.70
2018-07-30T16:48:53.152Z,2.87
2018-07-30T16:51:20.615Z,8.50
2018-07-30T16:53:48.168Z,3.13
2018-07-30T16:56:15.680Z,3.50
2018-07-30T16:58:43.330Z,3.80
2018-07-30T17:01:10.885Z,3.60
2018-07-30T17:03:38.482Z,3.33
2018-07-30T17:06:06.073Z,3.43
2018-07-30T17:08:33.615Z,3.97
2018-07-30T17:11:01.691Z,4.00
2018-07-30T17:13:29.936Z,6.17
2018-07-30T17:15:57.439Z,8.30
2018-07-30T17:18:25.233Z,3.63
2018-07-30T17:20:53.223Z,6.20
2018-07-30T17:23:21.135Z,4.23
2018-07-30T17:25:49.034Z,4.73
2018-07-30T17:28:16.544Z,4.53
2018-07-30T17:30:44.113Z,4.80
2018-07-30T17:33:11.671Z,5.63
2018-07-30T17:35:40.863Z,4.17
2018-07-30T17:38:08.992Z,5.00
2018-07-30T17:40:36.474Z,6.00
2018-07-30T17:43:03.999Z,4.67
2018-07-30T17:45:31.937Z,5.33
2018-07-30T17:47:59.471Z,5.50
2018-07-30T17:50:27.047Z,10.13
2018-07-30T17:52:54.615Z,5.67
2018-07-30T17:55:22.160Z,5.37
2018-07-30T17:57:49.785Z,6.17
2018-07-30T18:00:17.337Z,6.40
2018-07-30T18:02:45.075Z,5.40
2018-07-30T18:05:16.956Z,5.90
2018-07-30T18:07:48.166Z,5.73
2018-07-30T18:10:16.895Z,5.80
2018-07-30T18:12:45.930Z,8.03
2018-07-30T18:15:14.307Z,6.33
2018-07-30T18:17:42.574Z,5.92
2018-07-30T18:20:10.666Z,7.07
2018-07-30T18:22:39.436Z,6.55
2018-07-30T18:25:07.700Z,5.20
2018-07-30T18:27:35.810Z,6.20
2018-07-30T18:30:05.579Z,5.80
2018-07-30T18:32:33.688Z,5.80
2018-07-30T18:35:02.231Z,4.83
2018-07-30T18:37:30.132Z,5.30
2018-07-30T18:39:58.727Z,5.23
2018-07-30T18:42:27.012Z,6.07
2018-07-30T18:44:55.721Z,7.43
2018-07-30T18:47:23.976Z,5.00
2018-07-30T18:49:51.803Z,5.70
2018-07-30T18:52:19.568Z,6.60
2018-07-30T18:54:47.140Z,11.10
2018-07-30T18:57:14.674Z,4.90
2018-07-30T18:59:42.507Z,5.53
2018-07-30T19:02:10.081Z,7.00
2018-07-30T19:04:38.249Z,6.40
2018-07-30T19:07:06.216Z,6.97
2018-07-30T19:09:33.723Z,4.63
2018-07-30T19:12:01.237Z,6.83
2018-07-30T19:14:29.281Z,5.20
2018-07-30T19:16:57.505Z,6.83
2018-07-30T19:19:25.411Z,8.63
2018-07-30T19:21:54.171Z,8.50
2018-07-30T19:24:22.245Z,5.00
2018-07-30T19:26:49.695Z,6.07
2018-07-30T19:29:17.768Z,5.50
2018-07-30T19:31:46.475Z,4.80
2018-07-30T19:34:14.563Z,6.00
2018-07-30T19:36:42.129Z,6.00
2018-07-30T19:39:11.888Z,6.70
2018-07-30T19:41:40.094Z,5.80
2018-07-30T19:44:09.180Z,7.57
2018-07-30T19:46:37.304Z,5.20
2018-07-30T19:49:05.412Z,4.77
2018-07-30T19:51:33.054Z,10.50
2018-07-30T19:54:01.017Z,10.23
2018-07-30T19:56:28.823Z,12.73
2018-07-30T19:58:56.496Z,9.03
2018-07-30T20:01:24.715Z,7.67
2018-07-30T20:03:53.182Z,12.03
2018-07-30T20:06:21.795Z,5.73
2018-07-30T20:08:49.395Z,8.67
2018-07-30T20:11:16.921Z,6.93
2018-07-30T20:13:45.136Z,12.80
2018-07-30T20:16:12.992Z,5.73
2018-07-30T20:18:41.686Z,11.03
2018-07-30T20:21:09.761Z,9.23
2018-07-30T20:23:37.809Z,6.80
2018-07-30T20:26:06.202Z,6.50
2018-07-30T20:28:34.148Z,7.77
2018-07-30T20:31:01.709Z,7.23
2018-07-30T20:33:29.295Z,11.33
2018-07-30T20:35:57.475Z,11.70
2018-07-30T20:38:25.299Z,7.80
2018-07-30T20:40:54.336Z,5.73
2018-07-30T20:43:22.227Z,8.87
2018-07-30T20:45:50.152Z,8.43
2018-07-30T20:48:17.650Z,6.20
2018-07-30T20:50:45.348Z,5.97
2018-07-30T20:53:13.595Z,6.03
2018-07-30T20:55:41.533Z,9.63
2018-07-30T20:58:09.011Z,6.53
2018-07-30T21:00:36.936Z,6.23
2018-07-30T21:03:04.499Z,7.40
2018-07-30T21:05:36.568Z,7.60
2018-07-30T21:08:04.229Z,9.00
2018-07-30T21:10:32.640Z,5.43
2018-07-30T21:13:01.000Z,6.00
2018-07-30T21:15:29.245Z,10.07
2018-07-30T21:17:56.744Z,8.10
2018-07-30T21:20:24.640Z,9.20
2018-07-30T21:22:52.486Z,7.57
2018-07-30T21:25:21.195Z,8.10
2018-07-30T21:27:49.153Z,6.17
2018-07-30T21:30:16.669Z,9.73
2018-07-30T21:32:44.599Z,11.20
2018-07-30T21:35:12.458Z,7.67
2018-07-30T21:37:40.003Z,6.87
2018-07-30T21:40:08.208Z,7.23
2018-07-30T21:42:35.731Z,8.23
2018-07-30T21:45:03.769Z,7.60
2018-07-30T21:47:31.284Z,8.40
2018-07-30T21:49:59.967Z,7.63
2018-07-30T21:52:27.522Z,6.97
2018-07-30T21:54:55.399Z,8.63
2018-07-30T21:57:22.850Z,7.60
2018-07-30T21:59:50.878Z,7.03
2018-07-30T22:02:18.432Z,5.30
2018-07-30T22:04:46.486Z,7.57
2018-07-30T22:07:14.100Z,9.53
2018-07-30T22:09:42.280Z,8.57
2018-07-30T22:12:10.232Z,7.30
2018-07-30T22:14:37.991Z,4.83
2018-07-30T22:17:06.803Z,6.40
2018-07-30T22:19:35.446Z,6.30
2018-07-30T22:22:03.611Z,7.80
2018-07-30T22:24:31.692Z,9.37
2018-07-30T22:26:59.636Z,7.93
2018-07-30T22:29:28.258Z,7.20
2018-07-30T22:31:56.301Z,7.57
2018-07-30T22:34:24.316Z,9.60
2018-07-30T22:36:51.840Z,8.10
2018-07-30T22:39:19.842Z,8.67
2018-07-30T22:41:47.771Z,7.83
2018-07-30T22:44:15.679Z,9.40
2018-07-30T22:46:43.142Z,8.37
2018-07-30T22:49:10.731Z,8.50
2018-07-30T22:51:38.315Z,9.33
2018-07-30T22:54:06.096Z,13.70
2018-07-30T22:56:34.334Z,9.47
2018-07-30T22:59:02.822Z,9.80
2018-07-30T23:01:31.026Z,12.50
2018-07-30T23:03:58.546Z,9.03
2018-07-30T23:06:28.783Z,8.90
2018-07-30T23:08:57.178Z,10.30
2018-07-30T23:11:24.695Z,10.40
2018-07-30T23:13:53.010Z,7.80
2018-07-30T23:16:20.589Z,10.73
2018-07-30T23:18:48.175Z,7.60
2018-07-30T23:21:17.023Z,7.83
2018-07-30T23:23:44.882Z,10.73
2018-07-30T23:26:13.084Z,12.20
2018-07-30T23:28:41.915Z,8.00
2018-07-30T23:31:10.152Z,13.30
2018-07-30T23:33:38.127Z,8.77
2018-07-30T23:36:06.003Z,12.60
2018-07-30T23:38:33.528Z,11.67
2018-07-30T23:41:01.379Z,13.00
2018-07-30T23:43:29.919Z,10.20
2018-07-30T23:45:57.362Z,9.00
2018-07-30T23:48:24.850Z,12.33
2018-07-30T23:50:52.487Z,8.30
2018-07-30T23:53:20.475Z,8.63
2018-07-30T23:55:47.943Z,10.30
2018-07-30T23:58:16.019Z,11.17
